Brinkley, Kentucky
Current Conditions -  °F | °C
As of 7:55 PM on Saturday 22 Nov 2014 (Local Time) from KPBX Reporting Station
Overcast Overcast  
Wind Chill: 54°   Ceiling: 10000
Heat Index: 54°   Visibility: 10mi
Dew Point: 22°   Wind: 8mph
Humidity: 29%   Direction: 170°S
Pressure: 30.19"   Gusts: NA
Location:  37.3236°N, 82.9494°W
Report Text: KPBX 230055Z AUTO 17007KT 10SM OVC100 12/M06 A3019 RMK AO2 T01201056
Loading
Personal Weather Stations






























Interactive Weather Map New forecast layout! Learn more

10-Day Weather Forecast

Advertisements
Track Severe Weather on mobile